Grafton, Wisconsin
Current Conditions -  °F | °C
As of 2:15 PM on Friday 21 Nov 2014 (Local Time) from KETB Reporting Station
Clear Clear  
Wind Chill: 21°   Ceiling: Unl
Heat Index: 30°   Visibility: 10mi
Dew Point:   Wind: 10mph
Humidity: 32%   Direction: 200°SSW
Pressure: 30.28"   Gusts: NA
Location:  43.32°N, 87.94°W
Report Text: KETB 212015Z AUTO 20009KT 10SM CLR M01/M16 A3028 RMK AO2
Loading
Personal Weather Stations






























Interactive Weather Map New forecast layout! Learn more

10-Day Weather Forecast

Advertisements
Track Severe Weather on mobile